sensor_id;sensor_type;location;lat;lon;timestamp;P1;durP1;ratioP1;P2;durP2;ratioP2
1563;SDS011;775;51.958;7.976;2023-03-12T00:01:44;19.47;;;9.17;;
1563;SDS011;775;51.958;7.976;2023-03-12T00:04:11;24.60;;;9.33;;
1563;SDS011;775;51.958;7.976;2023-03-12T00:06:38;20.83;;;8.83;;
1563;SDS011;775;51.958;7.976;2023-03-12T00:09:05;20.90;;;9.17;;
1563;SDS011;775;51.958;7.976;2023-03-12T00:11:33;18.07;;;9.00;;
1563;SDS011;775;51.958;7.976;2023-03-12T00:14:01;18.47;;;7.87;;
1563;SDS011;775;51.958;7.976;2023-03-12T00:16:28;19.17;;;9.67;;
1563;SDS011;775;51.958;7.976;2023-03-12T00:18:55;18.90;;;8.17;;
1563;SDS011;775;51.958;7.976;2023-03-12T00:21:23;17.30;;;8.53;;
1563;SDS011;775;51.958;7.976;2023-03-12T00:23:50;20.80;;;9.13;;
1563;SDS011;775;51.958;7.976;2023-03-12T00:26:18;17.83;;;8.70;;
1563;SDS011;775;51.958;7.976;2023-03-12T00:28:46;16.43;;;8.47;;
1563;SDS011;775;51.958;7.976;2023-03-12T00:31:15;20.27;;;8.63;;
1563;SDS011;775;51.958;7.976;2023-03-12T00:33:42;19.57;;;8.00;;
1563;SDS011;775;51.958;7.976;2023-03-12T00:36:10;19.10;;;8.80;;
1563;SDS011;775;51.958;7.976;2023-03-12T00:38:37;17.33;;;8.83;;
1563;SDS011;775;51.958;7.976;2023-03-12T00:41:04;16.73;;;7.60;;
1563;SDS011;775;51.958;7.976;2023-03-12T00:43:31;16.67;;;8.00;;
1563;SDS011;775;51.958;7.976;2023-03-12T00:45:58;16.40;;;8.40;;
1563;SDS011;775;51.958;7.976;2023-03-12T00:48:26;18.00;;;7.93;;
1563;SDS011;775;51.958;7.976;2023-03-12T00:50:53;17.00;;;7.40;;
1563;SDS011;775;51.958;7.976;2023-03-12T00:53:20;15.40;;;7.50;;
1563;SDS011;775;51.958;7.976;2023-03-12T00:55:47;19.87;;;7.97;;
1563;SDS011;775;51.958;7.976;2023-03-12T00:58:14;17.33;;;8.37;;
1563;SDS011;775;51.958;7.976;2023-03-12T01:00:42;18.07;;;7.27;;
1563;SDS011;775;51.958;7.976;2023-03-12T01:03:09;19.57;;;9.10;;
1563;SDS011;775;51.958;7.976;2023-03-12T01:05:37;19.77;;;7.37;;
1563;SDS011;775;51.958;7.976;2023-03-12T01:08:07;16.60;;;7.70;;
1563;SDS011;775;51.958;7.976;2023-03-12T01:10:34;17.73;;;6.87;;
1563;SDS011;775;51.958;7.976;2023-03-12T01:13:02;15.87;;;7.07;;
1563;SDS011;775;51.958;7.976;2023-03-12T01:15:29;16.50;;;6.23;;
1563;SDS011;775;51.958;7.976;2023-03-12T01:17:56;21.70;;;6.90;;
1563;SDS011;775;51.958;7.976;2023-03-12T01:20:23;16.10;;;6.70;;
1563;SDS011;775;51.958;7.976;2023-03-12T01:22:52;16.50;;;7.00;;
1563;SDS011;775;51.958;7.976;2023-03-12T01:25:19;15.53;;;6.20;;
1563;SDS011;775;51.958;7.976;2023-03-12T01:27:46;18.07;;;6.50;;
1563;SDS011;775;51.958;7.976;2023-03-12T01:30:13;16.53;;;6.60;;
1563;SDS011;775;51.958;7.976;2023-03-12T01:32:40;18.50;;;7.20;;
1563;SDS011;775;51.958;7.976;2023-03-12T01:35:08;16.93;;;6.83;;
1563;SDS011;775;51.958;7.976;2023-03-12T01:37:35;16.03;;;7.30;;
1563;SDS011;775;51.958;7.976;2023-03-12T01:40:04;16.87;;;6.07;;
1563;SDS011;775;51.958;7.976;2023-03-12T01:42:31;19.83;;;7.20;;
1563;SDS011;775;51.958;7.976;2023-03-12T01:44:59;16.60;;;6.70;;
1563;SDS011;775;51.958;7.976;2023-03-12T01:47:26;17.50;;;7.00;;
1563;SDS011;775;51.958;7.976;2023-03-12T01:49:55;15.57;;;6.77;;
1563;SDS011;775;51.958;7.976;2023-03-12T01:52:24;15.10;;;6.10;;
1563;SDS011;775;51.958;7.976;2023-03-12T01:54:54;17.30;;;6.67;;
1563;SDS011;775;51.958;7.976;2023-03-12T01:57:25;17.00;;;6.77;;
1563;SDS011;775;51.958;7.976;2023-03-12T01:59:54;15.47;;;6.10;;
1563;SDS011;775;51.958;7.976;2023-03-12T02:02:24;15.63;;;6.70;;
1563;SDS011;775;51.958;7.976;2023-03-12T02:04:55;15.90;;;7.20;;
1563;SDS011;775;51.958;7.976;2023-03-12T02:07:25;15.10;;;5.90;;
1563;SDS011;775;51.958;7.976;2023-03-12T02:09:52;14.50;;;5.57;;
1563;SDS011;775;51.958;7.976;2023-03-12T02:12:19;14.97;;;6.43;;
1563;SDS011;775;51.958;7.976;2023-03-12T02:14:48;15.00;;;7.10;;
1563;SDS011;775;51.958;7.976;2023-03-12T02:17:15;14.67;;;6.40;;
1563;SDS011;775;51.958;7.976;2023-03-12T02:19:43;17.77;;;6.83;;
1563;SDS011;775;51.958;7.976;2023-03-12T02:22:13;14.13;;;5.50;;
1563;SDS011;775;51.958;7.976;2023-03-12T02:24:42;17.70;;;6.40;;
1563;SDS011;775;51.958;7.976;2023-03-12T02:27:11;15.20;;;6.20;;
1563;SDS011;775;51.958;7.976;2023-03-12T02:29:39;14.93;;;5.40;;
1563;SDS011;775;51.958;7.976;2023-03-12T02:32:07;15.23;;;5.50;;
1563;SDS011;775;51.958;7.976;2023-03-12T02:34:35;14.60;;;5.53;;
1563;SDS011;775;51.958;7.976;2023-03-12T02:37:02;14.50;;;4.97;;
1563;SDS011;775;51.958;7.976;2023-03-12T02:39:30;17.13;;;5.10;;
1563;SDS011;775;51.958;7.976;2023-03-12T02:41:57;12.80;;;5.07;;
1563;SDS011;775;51.958;7.976;2023-03-12T02:44:27;13.63;;;5.40;;
1563;SDS011;775;51.958;7.976;2023-03-12T02:46:56;14.60;;;5.03;;
1563;SDS011;775;51.958;7.976;2023-03-12T02:49:24;15.00;;;5.17;;
1563;SDS011;775;51.958;7.976;2023-03-12T02:51:51;12.90;;;4.80;;
1563;SDS011;775;51.958;7.976;2023-03-12T02:54:20;14.00;;;5.63;;
1563;SDS011;775;51.958;7.976;2023-03-12T02:56:47;13.87;;;4.67;;
1563;SDS011;775;51.958;7.976;2023-03-12T02:59:15;15.37;;;5.33;;
1563;SDS011;775;51.958;7.976;2023-03-12T03:01:43;14.40;;;4.77;;
1563;SDS011;775;51.958;7.976;2023-03-12T03:04:10;12.40;;;4.33;;
1563;SDS011;775;51.958;7.976;2023-03-12T03:06:38;13.60;;;4.93;;
1563;SDS011;775;51.958;7.976;2023-03-12T03:09:06;13.73;;;5.40;;
1563;SDS011;775;51.958;7.976;2023-03-12T03:11:33;15.77;;;6.10;;
1563;SDS011;775;51.958;7.976;2023-03-12T03:14:00;13.27;;;4.90;;
1563;SDS011;775;51.958;7.976;2023-03-12T03:16:28;15.23;;;5.50;;
1563;SDS011;775;51.958;7.976;2023-03-12T03:18:57;13.53;;;5.30;;
1563;SDS011;775;51.958;7.976;2023-03-12T03:21:24;14.10;;;5.53;;
1563;SDS011;775;51.958;7.976;2023-03-12T03:23:51;12.47;;;5.30;;
1563;SDS011;775;51.958;7.976;2023-03-12T03:26:18;16.60;;;5.80;;
1563;SDS011;775;51.958;7.976;2023-03-12T03:28:46;14.83;;;5.60;;
1563;SDS011;775;51.958;7.976;2023-03-12T03:31:13;16.73;;;6.90;;
1563;SDS011;775;51.958;7.976;2023-03-12T03:33:40;12.90;;;4.83;;
1563;SDS011;775;51.958;7.976;2023-03-12T03:36:09;15.73;;;5.97;;
1563;SDS011;775;51.958;7.976;2023-03-12T03:38:38;16.97;;;6.07;;
1563;SDS011;775;51.958;7.976;2023-03-12T03:41:05;16.90;;;5.87;;
1563;SDS011;775;51.958;7.976;2023-03-12T03:43:32;15.37;;;5.50;;
1563;SDS011;775;51.958;7.976;2023-03-12T03:46:00;13.43;;;4.87;;
1563;SDS011;775;51.958;7.976;2023-03-12T03:48:28;14.50;;;5.20;;
1563;SDS011;775;51.958;7.976;2023-03-12T03:50:58;13.70;;;5.00;;
1563;SDS011;775;51.958;7.976;2023-03-12T03:53:26;14.97;;;5.30;;
1563;SDS011;775;51.958;7.976;2023-03-12T03:55:53;14.03;;;5.73;;
1563;SDS011;775;51.958;7.976;2023-03-12T03:58:20;14.57;;;5.07;;
1563;SDS011;775;51.958;7.976;2023-03-12T04:00:48;15.07;;;4.70;;
1563;SDS011;775;51.958;7.976;2023-03-12T04:03:15;12.20;;;4.93;;
1563;SDS011;775;51.958;7.976;2023-03-12T04:05:42;12.30;;;4.50;;
1563;SDS011;775;51.958;7.976;2023-03-12T04:08:09;13.50;;;5.03;;
1563;SDS011;775;51.958;7.976;2023-03-12T04:10:38;14.60;;;5.70;;
1563;SDS011;775;51.958;7.976;2023-03-12T04:13:05;14.30;;;5.27;;
1563;SDS011;775;51.958;7.976;2023-03-12T04:15:32;13.17;;;4.50;;
1563;SDS011;775;51.958;7.976;2023-03-12T04:17:59;13.37;;;4.63;;
1563;SDS011;775;51.958;7.976;2023-03-12T04:20:26;13.60;;;4.47;;
1563;SDS011;775;51.958;7.976;2023-03-12T04:22:54;13.70;;;4.47;;
1563;SDS011;775;51.958;7.976;2023-03-12T04:25:22;13.90;;;4.43;;
1563;SDS011;775;51.958;7.976;2023-03-12T04:27:50;12.27;;;4.10;;
1563;SDS011;775;51.958;7.976;2023-03-12T04:30:18;13.63;;;4.80;;
1563;SDS011;775;51.958;7.976;2023-03-12T04:32:45;14.57;;;4.50;;
1563;SDS011;775;51.958;7.976;2023-03-12T04:35:12;12.13;;;3.83;;
1563;SDS011;775;51.958;7.976;2023-03-12T04:37:39;13.67;;;4.07;;
1563;SDS011;775;51.958;7.976;2023-03-12T04:40:06;11.60;;;4.30;;
1563;SDS011;775;51.958;7.976;2023-03-12T04:42:34;13.20;;;3.87;;
1563;SDS011;775;51.958;7.976;2023-03-12T04:45:03;11.90;;;3.63;;
1563;SDS011;775;51.958;7.976;2023-03-12T04:47:31;15.27;;;3.73;;
1563;SDS011;775;51.958;7.976;2023-03-12T04:49:58;15.03;;;3.73;;
1563;SDS011;775;51.958;7.976;2023-03-12T04:52:25;12.93;;;3.60;;
1563;SDS011;775;51.958;7.976;2023-03-12T04:54:52;11.73;;;3.83;;
1563;SDS011;775;51.958;7.976;2023-03-12T04:57:19;10.70;;;3.10;;
1563;SDS011;775;51.958;7.976;2023-03-12T04:59:47;12.03;;;3.30;;
1563;SDS011;775;51.958;7.976;2023-03-12T05:02:15;12.30;;;4.03;;
1563;SDS011;775;51.958;7.976;2023-03-12T05:04:42;11.63;;;3.20;;
1563;SDS011;775;51.958;7.976;2023-03-12T05:07:10;11.10;;;3.30;;
1563;SDS011;775;51.958;7.976;2023-03-12T05:09:37;22.03;;;3.70;;
1563;SDS011;775;51.958;7.976;2023-03-12T05:12:04;13.63;;;3.40;;
1563;SDS011;775;51.958;7.976;2023-03-12T05:14:31;11.23;;;3.27;;
1563;SDS011;775;51.958;7.976;2023-03-12T05:16:58;11.00;;;3.37;;
1563;SDS011;775;51.958;7.976;2023-03-12T05:19:27;11.00;;;3.57;;
1563;SDS011;775;51.958;7.976;2023-03-12T05:21:54;13.23;;;3.33;;
1563;SDS011;775;51.958;7.976;2023-03-12T05:24:21;12.07;;;3.53;;
1563;SDS011;775;51.958;7.976;2023-03-12T05:26:48;11.20;;;3.20;;
1563;SDS011;775;51.958;7.976;2023-03-12T05:29:15;11.90;;;3.60;;
1563;SDS011;775;51.958;7.976;2023-03-12T05:31:42;12.40;;;3.40;;
1563;SDS011;775;51.958;7.976;2023-03-12T05:34:10;12.37;;;3.97;;
1563;SDS011;775;51.958;7.976;2023-03-12T05:36:38;12.20;;;4.03;;
1563;SDS011;775;51.958;7.976;2023-03-12T05:39:06;11.73;;;3.80;;
1563;SDS011;775;51.958;7.976;2023-03-12T05:41:33;12.97;;;3.97;;
1563;SDS011;775;51.958;7.976;2023-03-12T05:44:00;11.83;;;3.60;;
1563;SDS011;775;51.958;7.976;2023-03-12T05:46:27;14.83;;;3.23;;
1563;SDS011;775;51.958;7.976;2023-03-12T05:48:54;10.57;;;2.90;;
1563;SDS011;775;51.958;7.976;2023-03-12T05:51:22;11.50;;;3.50;;
1563;SDS011;775;51.958;7.976;2023-03-12T05:53:50;11.90;;;3.30;;
1563;SDS011;775;51.958;7.976;2023-03-12T05:56:17;13.77;;;3.60;;
1563;SDS011;775;51.958;7.976;2023-03-12T05:58:46;10.63;;;3.17;;
1563;SDS011;775;51.958;7.976;2023-03-12T06:01:14;11.60;;;3.40;;
1563;SDS011;775;51.958;7.976;2023-03-12T06:03:41;11.27;;;2.90;;
1563;SDS011;775;51.958;7.976;2023-03-12T06:06:08;11.53;;;3.20;;
1563;SDS011;775;51.958;7.976;2023-03-12T06:08:35;13.80;;;3.03;;
1563;SDS011;775;51.958;7.976;2023-03-12T06:11:04;11.00;;;3.30;;
1563;SDS011;775;51.958;7.976;2023-03-12T06:13:31;15.67;;;3.40;;
1563;SDS011;775;51.958;7.976;2023-03-12T06:16:00;10.00;;;2.60;;
1563;SDS011;775;51.958;7.976;2023-03-12T06:18:28;11.23;;;3.00;;
1563;SDS011;775;51.958;7.976;2023-03-12T06:20:55;11.07;;;3.23;;
1563;SDS011;775;51.958;7.976;2023-03-12T06:23:32;12.93;;;3.60;;
1563;SDS011;775;51.958;7.976;2023-03-12T06:25:59;10.53;;;2.77;;
1563;SDS011;775;51.958;7.976;2023-03-12T06:28:28;11.10;;;2.40;;
1563;SDS011;775;51.958;7.976;2023-03-12T06:30:55;10.93;;;2.60;;
1563;SDS011;775;51.958;7.976;2023-03-12T06:33:22;12.50;;;3.30;;
1563;SDS011;775;51.958;7.976;2023-03-12T06:35:51;12.27;;;3.20;;
1563;SDS011;775;51.958;7.976;2023-03-12T06:38:18;12.17;;;2.80;;
1563;SDS011;775;51.958;7.976;2023-03-12T06:40:52;12.30;;;2.70;;
1563;SDS011;775;51.958;7.976;2023-03-12T06:43:19;11.53;;;2.47;;
1563;SDS011;775;51.958;7.976;2023-03-12T06:45:47;12.43;;;2.87;;
1563;SDS011;775;51.958;7.976;2023-03-12T06:48:14;10.33;;;2.40;;
1563;SDS011;775;51.958;7.976;2023-03-12T06:50:41;12.57;;;2.40;;
1563;SDS011;775;51.958;7.976;2023-03-12T06:53:09;13.20;;;2.47;;
1563;SDS011;775;51.958;7.976;2023-03-12T06:55:36;11.47;;;3.20;;
1563;SDS011;775;51.958;7.976;2023-03-12T06:58:03;10.00;;;2.10;;
1563;SDS011;775;51.958;7.976;2023-03-12T07:00:30;11.30;;;2.67;;
1563;SDS011;775;51.958;7.976;2023-03-12T07:03:00;12.53;;;2.70;;
1563;SDS011;775;51.958;7.976;2023-03-12T07:05:27;17.50;;;2.70;;
1563;SDS011;775;51.958;7.976;2023-03-12T07:07:54;11.60;;;2.50;;
1563;SDS011;775;51.958;7.976;2023-03-12T07:10:21;11.00;;;2.50;;
1563;SDS011;775;51.958;7.976;2023-03-12T07:12:48;12.00;;;2.27;;
1563;SDS011;775;51.958;7.976;2023-03-12T07:15:16;12.50;;;3.30;;
1563;SDS011;775;51.958;7.976;2023-03-12T07:17:43;11.90;;;3.10;;
1563;SDS011;775;51.958;7.976;2023-03-12T07:20:11;11.63;;;3.20;;
1563;SDS011;775;51.958;7.976;2023-03-12T07:22:39;16.03;;;3.57;;
1563;SDS011;775;51.958;7.976;2023-03-12T07:25:06;12.90;;;3.60;;
1563;SDS011;775;51.958;7.976;2023-03-12T07:27:34;13.10;;;3.03;;
1563;SDS011;775;51.958;7.976;2023-03-12T07:30:01;13.63;;;3.37;;
1563;SDS011;775;51.958;7.976;2023-03-12T07:32:28;9.90;;;2.60;;
1563;SDS011;775;51.958;7.976;2023-03-12T07:34:57;13.87;;;2.80;;
1563;SDS011;775;51.958;7.976;2023-03-12T07:37:25;12.07;;;2.40;;
1563;SDS011;775;51.958;7.976;2023-03-12T07:39:53;10.40;;;3.20;;
1563;SDS011;775;51.958;7.976;2023-03-12T07:42:20;11.57;;;2.93;;
1563;SDS011;775;51.958;7.976;2023-03-12T07:44:47;11.47;;;3.63;;
1563;SDS011;775;51.958;7.976;2023-03-12T07:47:14;13.47;;;3.10;;
1563;SDS011;775;51.958;7.976;2023-03-12T07:49:41;10.90;;;2.37;;
1563;SDS011;775;51.958;7.976;2023-03-12T07:52:08;10.57;;;2.83;;
1563;SDS011;775;51.958;7.976;2023-03-12T07:54:37;11.40;;;2.60;;
1563;SDS011;775;51.958;7.976;2023-03-12T07:57:04;12.00;;;2.43;;
1563;SDS011;775;51.958;7.976;2023-03-12T07:59:31;10.00;;;2.50;;
1563;SDS011;775;51.958;7.976;2023-03-12T08:01:58;10.77;;;2.17;;
1563;SDS011;775;51.958;7.976;2023-03-12T08:04:26;11.67;;;2.27;;
1563;SDS011;775;51.958;7.976;2023-03-12T08:06:53;10.60;;;1.90;;
1563;SDS011;775;51.958;7.976;2023-03-12T08:09:20;11.00;;;2.80;;
1563;SDS011;775;51.958;7.976;2023-03-12T08:11:48;11.40;;;2.83;;
1563;SDS011;775;51.958;7.976;2023-03-12T08:14:15;12.70;;;3.83;;
1563;SDS011;775;51.958;7.976;2023-03-12T08:16:42;11.20;;;2.47;;
1563;SDS011;775;51.958;7.976;2023-03-12T08:19:09;10.70;;;2.30;;
1563;SDS011;775;51.958;7.976;2023-03-12T08:21:36;13.73;;;3.30;;
1563;SDS011;775;51.958;7.976;2023-03-12T08:24:04;13.80;;;2.90;;
1563;SDS011;775;51.958;7.976;2023-03-12T08:26:31;11.47;;;2.87;;
1563;SDS011;775;51.958;7.976;2023-03-12T08:28:59;10.70;;;2.80;;
1563;SDS011;775;51.958;7.976;2023-03-12T08:31:26;16.50;;;3.30;;
1563;SDS011;775;51.958;7.976;2023-03-12T08:33:53;12.20;;;3.30;;
1563;SDS011;775;51.958;7.976;2023-03-12T08:36:20;14.10;;;2.43;;
1563;SDS011;775;51.958;7.976;2023-03-12T08:38:48;11.07;;;2.30;;
1563;SDS011;775;51.958;7.976;2023-03-12T08:41:15;10.57;;;2.67;;
1563;SDS011;775;51.958;7.976;2023-03-12T08:43:42;11.37;;;2.33;;
1563;SDS011;775;51.958;7.976;2023-03-12T08:46:10;17.23;;;2.60;;
1563;SDS011;775;51.958;7.976;2023-03-12T08:48:38;12.23;;;2.97;;
1563;SDS011;775;51.958;7.976;2023-03-12T08:51:05;12.83;;;3.17;;
1563;SDS011;775;51.958;7.976;2023-03-12T08:53:33;10.57;;;2.90;;
1563;SDS011;775;51.958;7.976;2023-03-12T08:56:01;13.47;;;3.60;;
1563;SDS011;775;51.958;7.976;2023-03-12T08:58:29;11.00;;;2.90;;
1563;SDS011;775;51.958;7.976;2023-03-12T09:00:56;11.17;;;3.10;;
1563;SDS011;775;51.958;7.976;2023-03-12T09:03:25;11.07;;;3.30;;
1563;SDS011;775;51.958;7.976;2023-03-12T09:06:03;13.07;;;3.40;;
1563;SDS011;775;51.958;7.976;2023-03-12T09:08:30;12.40;;;3.47;;
1563;SDS011;775;51.958;7.976;2023-03-12T09:10:58;11.40;;;3.57;;
1563;SDS011;775;51.958;7.976;2023-03-12T09:13:25;13.40;;;3.50;;
1563;SDS011;775;51.958;7.976;2023-03-12T09:15:56;11.47;;;4.30;;
1563;SDS011;775;51.958;7.976;2023-03-12T09:18:25;12.40;;;3.27;;
1563;SDS011;775;51.958;7.976;2023-03-12T09:20:52;14.60;;;3.00;;
1563;SDS011;775;51.958;7.976;2023-03-12T09:23:19;11.40;;;3.03;;
1563;SDS011;775;51.958;7.976;2023-03-12T09:25:46;14.93;;;4.13;;
1563;SDS011;775;51.958;7.976;2023-03-12T09:28:13;12.77;;;3.40;;
1563;SDS011;775;51.958;7.976;2023-03-12T09:30:41;13.20;;;3.80;;
1563;SDS011;775;51.958;7.976;2023-03-12T09:33:08;11.87;;;4.07;;
1563;SDS011;775;51.958;7.976;2023-03-12T09:35:37;14.43;;;3.63;;
1563;SDS011;775;51.958;7.976;2023-03-12T09:38:04;11.80;;;3.53;;
1563;SDS011;775;51.958;7.976;2023-03-12T09:40:32;12.70;;;3.73;;
1563;SDS011;775;51.958;7.976;2023-03-12T09:43:02;13.10;;;4.00;;
1563;SDS011;775;51.958;7.976;2023-03-12T09:45:31;13.60;;;4.00;;
1563;SDS011;775;51.958;7.976;2023-03-12T09:48:03;15.20;;;4.43;;
1563;SDS011;775;51.958;7.976;2023-03-12T09:50:31;13.40;;;3.90;;
1563;SDS011;775;51.958;7.976;2023-03-12T09:53:00;11.97;;;3.67;;
1563;SDS011;775;51.958;7.976;2023-03-12T09:55:27;13.80;;;4.00;;
1563;SDS011;775;51.958;7.976;2023-03-12T09:57:58;17.33;;;4.00;;
1563;SDS011;775;51.958;7.976;2023-03-12T10:00:26;14.07;;;4.27;;
1563;SDS011;775;51.958;7.976;2023-03-12T10:03:08;12.03;;;3.80;;
1563;SDS011;775;51.958;7.976;2023-03-12T10:05:37;13.60;;;4.10;;
1563;SDS011;775;51.958;7.976;2023-03-12T10:08:08;13.97;;;4.00;;
1563;SDS011;775;51.958;7.976;2023-03-12T10:10:39;14.40;;;5.00;;
1563;SDS011;775;51.958;7.976;2023-03-12T10:13:15;14.73;;;4.83;;
1563;SDS011;775;51.958;7.976;2023-03-12T10:15:47;15.57;;;4.73;;
1563;SDS011;775;51.958;7.976;2023-03-12T10:18:17;13.70;;;3.90;;
1563;SDS011;775;51.958;7.976;2023-03-12T10:20:56;16.30;;;4.50;;
1563;SDS011;775;51.958;7.976;2023-03-12T10:23:36;12.80;;;3.90;;
1563;SDS011;775;51.958;7.976;2023-03-12T10:26:09;14.30;;;3.97;;
1563;SDS011;775;51.958;7.976;2023-03-12T10:28:38;14.27;;;4.43;;
1563;SDS011;775;51.958;7.976;2023-03-12T10:31:09;13.40;;;4.70;;
1563;SDS011;775;51.958;7.976;2023-03-12T10:33:41;13.63;;;4.20;;
1563;SDS011;775;51.958;7.976;2023-03-12T10:36:11;15.60;;;4.27;;
1563;SDS011;775;51.958;7.976;2023-03-12T10:38:42;13.20;;;3.80;;
1563;SDS011;775;51.958;7.976;2023-03-12T10:41:13;18.13;;;4.10;;
1563;SDS011;775;51.958;7.976;2023-03-12T10:43:40;15.67;;;4.40;;
1563;SDS011;775;51.958;7.976;2023-03-12T10:46:23;16.93;;;5.07;;
1563;SDS011;775;51.958;7.976;2023-03-12T10:51:43;14.20;;;5.40;;
1563;SDS011;775;51.958;7.976;2023-03-12T10:54:26;18.70;;;4.67;;
1563;SDS011;775;51.958;7.976;2023-03-12T10:56:53;16.67;;;4.20;;
1563;SDS011;775;51.958;7.976;2023-03-12T10:59:20;15.03;;;4.70;;
1563;SDS011;775;51.958;7.976;2023-03-12T11:01:49;14.17;;;5.20;;
1563;SDS011;775;51.958;7.976;2023-03-12T11:04:17;14.70;;;5.73;;
1563;SDS011;775;51.958;7.976;2023-03-12T11:07:01;12.40;;;4.77;;
1563;SDS011;775;51.958;7.976;2023-03-12T11:09:30;14.77;;;5.13;;
1563;SDS011;775;51.958;7.976;2023-03-12T11:11:57;18.00;;;7.30;;
1563;SDS011;775;51.958;7.976;2023-03-12T11:14:25;17.10;;;5.70;;
1563;SDS011;775;51.958;7.976;2023-03-12T11:16:52;22.20;;;8.57;;
1563;SDS011;775;51.958;7.976;2023-03-12T11:19:27;15.93;;;5.80;;
1563;SDS011;775;51.958;7.976;2023-03-12T11:21:56;17.80;;;6.23;;
1563;SDS011;775;51.958;7.976;2023-03-12T11:24:23;16.20;;;6.83;;
1563;SDS011;775;51.958;7.976;2023-03-12T11:26:52;15.90;;;6.47;;
1563;SDS011;775;51.958;7.976;2023-03-12T11:29:25;15.50;;;6.40;;
1563;SDS011;775;51.958;7.976;2023-03-12T11:31:55;15.93;;;6.70;;
1563;SDS011;775;51.958;7.976;2023-03-12T11:34:24;15.00;;;7.00;;
1563;SDS011;775;51.958;7.976;2023-03-12T11:36:54;16.10;;;6.60;;
1563;SDS011;775;51.958;7.976;2023-03-12T11:39:28;13.97;;;5.47;;
1563;SDS011;775;51.958;7.976;2023-03-12T11:42:04;13.70;;;5.17;;
1563;SDS011;775;51.958;7.976;2023-03-12T11:44:37;18.20;;;5.20;;
1563;SDS011;775;51.958;7.976;2023-03-12T11:47:13;13.63;;;5.20;;
1563;SDS011;775;51.958;7.976;2023-03-12T11:49:47;16.30;;;6.10;;
1563;SDS011;775;51.958;7.976;2023-03-12T11:52:17;14.87;;;5.33;;
1563;SDS011;775;51.958;7.976;2023-03-12T11:57:39;12.60;;;4.93;;
1563;SDS011;775;51.958;7.976;2023-03-12T12:00:10;14.33;;;5.20;;
1563;SDS011;775;51.958;7.976;2023-03-12T12:05:28;13.93;;;5.27;;
1563;SDS011;775;51.958;7.976;2023-03-12T12:08:01;14.33;;;5.97;;
1563;SDS011;775;51.958;7.976;2023-03-12T12:10:34;14.20;;;5.97;;
1563;SDS011;775;51.958;7.976;2023-03-12T12:13:07;15.00;;;6.20;;
1563;SDS011;775;51.958;7.976;2023-03-12T12:15:36;13.03;;;4.90;;
1563;SDS011;775;51.958;7.976;2023-03-12T12:18:09;15.97;;;5.57;;
1563;SDS011;775;51.958;7.976;2023-03-12T12:20:41;13.30;;;5.40;;
1563;SDS011;775;51.958;7.976;2023-03-12T12:23:13;14.90;;;5.80;;
1563;SDS011;775;51.958;7.976;2023-03-12T12:28:37;14.50;;;5.60;;
1563;SDS011;775;51.958;7.976;2023-03-12T12:31:14;15.27;;;6.30;;
1563;SDS011;775;51.958;7.976;2023-03-12T12:33:47;14.20;;;6.13;;
1563;SDS011;775;51.958;7.976;2023-03-12T12:36:20;14.87;;;6.73;;
1563;SDS011;775;51.958;7.976;2023-03-12T12:38:48;20.23;;;11.50;;
1563;SDS011;775;51.958;7.976;2023-03-12T12:41:19;19.33;;;9.77;;
1563;SDS011;775;51.958;7.976;2023-03-12T12:43:48;19.90;;;11.17;;
1563;SDS011;775;51.958;7.976;2023-03-12T12:46:17;19.17;;;11.50;;
1563;SDS011;775;51.958;7.976;2023-03-12T12:48:45;18.33;;;9.23;;
1563;SDS011;775;51.958;7.976;2023-03-12T12:51:13;18.03;;;9.57;;
1563;SDS011;775;51.958;7.976;2023-03-12T12:53:43;18.00;;;9.30;;
1563;SDS011;775;51.958;7.976;2023-03-12T12:56:14;18.90;;;9.00;;
1563;SDS011;775;51.958;7.976;2023-03-12T12:58:46;19.37;;;9.63;;
1563;SDS011;775;51.958;7.976;2023-03-12T13:01:18;18.60;;;10.20;;
1563;SDS011;775;51.958;7.976;2023-03-12T13:03:45;17.47;;;9.40;;
1563;SDS011;775;51.958;7.976;2023-03-12T13:06:13;20.03;;;10.37;;
1563;SDS011;775;51.958;7.976;2023-03-12T13:09:12;19.27;;;9.93;;
1563;SDS011;775;51.958;7.976;2023-03-12T13:11:42;20.60;;;11.03;;
1563;SDS011;775;51.958;7.976;2023-03-12T13:14:14;18.40;;;9.43;;
1563;SDS011;775;51.958;7.976;2023-03-12T13:16:46;19.93;;;10.97;;
1563;SDS011;775;51.958;7.976;2023-03-12T13:19:23;20.37;;;11.53;;
1563;SDS011;775;51.958;7.976;2023-03-12T13:21:54;19.50;;;10.83;;
1563;SDS011;775;51.958;7.976;2023-03-12T13:24:28;21.80;;;11.70;;
1563;SDS011;775;51.958;7.976;2023-03-12T13:26:57;24.17;;;12.90;;
1563;SDS011;775;51.958;7.976;2023-03-12T13:29:36;21.50;;;12.10;;
1563;SDS011;775;51.958;7.976;2023-03-12T13:32:06;22.70;;;11.60;;
1563;SDS011;775;51.958;7.976;2023-03-12T13:34:44;23.87;;;12.57;;
1563;SDS011;775;51.958;7.976;2023-03-12T13:39:59;24.10;;;12.60;;
1563;SDS011;775;51.958;7.976;2023-03-12T13:42:36;29.10;;;13.93;;
1563;SDS011;775;51.958;7.976;2023-03-12T13:47:47;24.90;;;13.40;;
1563;SDS011;775;51.958;7.976;2023-03-12T13:50:15;30.77;;;15.10;;
1563;SDS011;775;51.958;7.976;2023-03-12T13:52:45;28.50;;;14.93;;
1563;SDS011;775;51.958;7.976;2023-03-12T13:55:15;26.27;;;14.47;;
1563;SDS011;775;51.958;7.976;2023-03-12T13:57:44;25.90;;;13.63;;
1563;SDS011;775;51.958;7.976;2023-03-12T14:00:15;25.80;;;14.33;;
1563;SDS011;775;51.958;7.976;2023-03-12T14:02:44;29.40;;;13.70;;
1563;SDS011;775;51.958;7.976;2023-03-12T14:05:14;26.60;;;12.70;;
1563;SDS011;775;51.958;7.976;2023-03-12T14:07:48;30.00;;;15.37;;
1563;SDS011;775;51.958;7.976;2023-03-12T14:10:20;30.83;;;14.90;;
1563;SDS011;775;51.958;7.976;2023-03-12T14:12:51;29.47;;;15.43;;
1563;SDS011;775;51.958;7.976;2023-03-12T14:15:23;30.50;;;15.93;;
1563;SDS011;775;51.958;7.976;2023-03-12T14:17:53;35.30;;;16.57;;
1563;SDS011;775;51.958;7.976;2023-03-12T14:20:23;27.10;;;14.53;;
1563;SDS011;775;51.958;7.976;2023-03-12T14:22:51;32.70;;;17.50;;
1563;SDS011;775;51.958;7.976;2023-03-12T14:25:21;27.80;;;15.37;;
1563;SDS011;775;51.958;7.976;2023-03-12T14:27:49;29.60;;;15.33;;
1563;SDS011;775;51.958;7.976;2023-03-12T14:30:18;34.63;;;18.13;;
1563;SDS011;775;51.958;7.976;2023-03-12T14:32:47;31.30;;;16.63;;
1563;SDS011;775;51.958;7.976;2023-03-12T14:35:16;30.10;;;16.53;;
1563;SDS011;775;51.958;7.976;2023-03-12T14:37:48;33.27;;;16.60;;
1563;SDS011;775;51.958;7.976;2023-03-12T14:40:21;30.90;;;16.83;;
1563;SDS011;775;51.958;7.976;2023-03-12T14:42:49;31.93;;;18.80;;
1563;SDS011;775;51.958;7.976;2023-03-12T14:45:17;27.67;;;16.07;;
1563;SDS011;775;51.958;7.976;2023-03-12T14:47:45;29.30;;;14.90;;
1563;SDS011;775;51.958;7.976;2023-03-12T14:50:16;28.07;;;14.57;;
1563;SDS011;775;51.958;7.976;2023-03-12T14:52:43;32.67;;;16.00;;
1563;SDS011;775;51.958;7.976;2023-03-12T14:55:13;32.20;;;16.57;;
1563;SDS011;775;51.958;7.976;2023-03-12T14:57:42;29.37;;;14.83;;
1563;SDS011;775;51.958;7.976;2023-03-12T15:00:13;32.33;;;17.00;;
1563;SDS011;775;51.958;7.976;2023-03-12T15:02:41;32.40;;;15.70;;
1563;SDS011;775;51.958;7.976;2023-03-12T15:05:13;28.53;;;14.30;;
1563;SDS011;775;51.958;7.976;2023-03-12T15:07:42;27.53;;;15.80;;
1563;SDS011;775;51.958;7.976;2023-03-12T15:10:16;34.10;;;17.77;;
1563;SDS011;775;51.958;7.976;2023-03-12T15:12:45;30.13;;;16.47;;
1563;SDS011;775;51.958;7.976;2023-03-12T15:15:26;28.37;;;14.87;;
1563;SDS011;775;51.958;7.976;2023-03-12T15:17:55;31.77;;;16.03;;
1563;SDS011;775;51.958;7.976;2023-03-12T15:20:22;34.47;;;16.40;;
1563;SDS011;775;51.958;7.976;2023-03-12T15:22:50;32.30;;;17.20;;
1563;SDS011;775;51.958;7.976;2023-03-12T15:25:23;29.87;;;16.83;;
1563;SDS011;775;51.958;7.976;2023-03-12T15:27:59;30.10;;;15.10;;
1563;SDS011;775;51.958;7.976;2023-03-12T15:30:27;33.53;;;14.40;;
1563;SDS011;775;51.958;7.976;2023-03-12T15:33:04;29.00;;;14.33;;
1563;SDS011;775;51.958;7.976;2023-03-12T15:35:31;30.70;;;15.10;;
1563;SDS011;775;51.958;7.976;2023-03-12T15:37:59;31.70;;;14.03;;
1563;SDS011;775;51.958;7.976;2023-03-12T15:40:28;32.80;;;14.40;;